sensor_id;sensor_type;location;lat;lon;timestamp;temperature;humidity
46366;DHT22;32073;49.166;8.076;2023-03-01T00:01:34;4.30;47.40
46366;DHT22;32073;49.166;8.076;2023-03-01T00:05:35;4.30;47.50
46366;DHT22;32073;49.166;8.076;2023-03-01T00:09:36;4.30;47.60
46366;DHT22;32073;49.166;8.076;2023-03-01T00:13:37;4.30;47.60
46366;DHT22;32073;49.166;8.076;2023-03-01T00:17:38;4.20;47.60
46366;DHT22;32073;49.166;8.076;2023-03-01T00:21:40;4.20;47.60
46366;DHT22;32073;49.166;8.076;2023-03-01T00:25:43;4.20;47.70
46366;DHT22;32073;49.166;8.076;2023-03-01T00:29:44;4.10;47.70
46366;DHT22;32073;49.166;8.076;2023-03-01T00:33:46;4.10;47.70
46366;DHT22;32073;49.166;8.076;2023-03-01T00:37:46;4.10;47.80
46366;DHT22;32073;49.166;8.076;2023-03-01T00:41:47;4.10;47.80
46366;DHT22;32073;49.166;8.076;2023-03-01T00:45:48;4.10;47.90
46366;DHT22;32073;49.166;8.076;2023-03-01T00:49:48;4.00;47.90
46366;DHT22;32073;49.166;8.076;2023-03-01T00:53:54;4.10;47.90
46366;DHT22;32073;49.166;8.076;2023-03-01T00:57:56;4.00;48.00
46366;DHT22;32073;49.166;8.076;2023-03-01T01:01:57;4.00;48.00
46366;DHT22;32073;49.166;8.076;2023-03-01T01:05:59;4.00;48.10
46366;DHT22;32073;49.166;8.076;2023-03-01T01:10:06;3.90;48.10
46366;DHT22;32073;49.166;8.076;2023-03-01T01:14:07;3.90;48.10
46366;DHT22;32073;49.166;8.076;2023-03-01T01:18:08;3.90;48.20
46366;DHT22;32073;49.166;8.076;2023-03-01T01:22:08;3.90;48.20
46366;DHT22;32073;49.166;8.076;2023-03-01T01:26:11;3.90;48.20
46366;DHT22;32073;49.166;8.076;2023-03-01T01:30:18;3.80;48.30
46366;DHT22;32073;49.166;8.076;2023-03-01T01:34:20;3.90;48.40
46366;DHT22;32073;49.166;8.076;2023-03-01T01:38:22;3.80;48.40
46366;DHT22;32073;49.166;8.076;2023-03-01T01:42:23;3.70;48.40
46366;DHT22;32073;49.166;8.076;2023-03-01T01:46:31;3.70;48.50
46366;DHT22;32073;49.166;8.076;2023-03-01T01:50:33;3.70;48.60
46366;DHT22;32073;49.166;8.076;2023-03-01T01:59:06;3.60;48.60
46366;DHT22;32073;49.166;8.076;2023-03-01T02:03:14;3.60;48.60
46366;DHT22;32073;49.166;8.076;2023-03-01T02:07:22;3.60;48.70
46366;DHT22;32073;49.166;8.076;2023-03-01T02:11:23;3.60;48.70
46366;DHT22;32073;49.166;8.076;2023-03-01T02:15:26;3.60;48.80
46366;DHT22;32073;49.166;8.076;2023-03-01T02:23:47;3.60;49.00
46366;DHT22;32073;49.166;8.076;2023-03-01T02:32:14;3.50;49.00
46366;DHT22;32073;49.166;8.076;2023-03-01T02:36:19;3.50;49.00
46366;DHT22;32073;49.166;8.076;2023-03-01T02:40:21;3.50;49.10
46366;DHT22;32073;49.166;8.076;2023-03-01T02:44:22;3.50;49.10
46366;DHT22;32073;49.166;8.076;2023-03-01T02:48:22;3.50;49.10
46366;DHT22;32073;49.166;8.076;2023-03-01T02:57:09;3.50;49.20
46366;DHT22;32073;49.166;8.076;2023-03-01T03:01:10;3.50;49.20
46366;DHT22;32073;49.166;8.076;2023-03-01T03:05:16;3.40;49.20
46366;DHT22;32073;49.166;8.076;2023-03-01T03:09:19;3.40;49.30
46366;DHT22;32073;49.166;8.076;2023-03-01T03:13:19;3.40;49.30
46366;DHT22;32073;49.166;8.076;2023-03-01T03:17:22;3.50;49.40
46366;DHT22;32073;49.166;8.076;2023-03-01T03:21:23;3.40;49.40
46366;DHT22;32073;49.166;8.076;2023-03-01T03:25:24;3.50;49.40
46366;DHT22;32073;49.166;8.076;2023-03-01T03:29:26;3.40;49.40
46366;DHT22;32073;49.166;8.076;2023-03-01T03:33:26;3.40;49.40
46366;DHT22;32073;49.166;8.076;2023-03-01T03:37:27;3.40;49.40
46366;DHT22;32073;49.166;8.076;2023-03-01T03:41:46;3.40;49.40
46366;DHT22;32073;49.166;8.076;2023-03-01T03:45:48;3.40;49.50
46366;DHT22;32073;49.166;8.076;2023-03-01T03:49:49;3.40;49.50
46366;DHT22;32073;49.166;8.076;2023-03-01T03:53:50;3.30;49.50
46366;DHT22;32073;49.166;8.076;2023-03-01T03:57:51;3.30;49.50
46366;DHT22;32073;49.166;8.076;2023-03-01T04:01:51;3.40;49.60
46366;DHT22;32073;49.166;8.076;2023-03-01T04:05:52;3.20;49.50
46366;DHT22;32073;49.166;8.076;2023-03-01T04:09:53;3.20;49.60
46366;DHT22;32073;49.166;8.076;2023-03-01T04:13:56;3.20;49.70
46366;DHT22;32073;49.166;8.076;2023-03-01T04:17:59;3.30;49.80
46366;DHT22;32073;49.166;8.076;2023-03-01T04:22:00;3.20;49.80
46366;DHT22;32073;49.166;8.076;2023-03-01T04:26:00;3.10;49.70
46366;DHT22;32073;49.166;8.076;2023-03-01T04:30:02;3.10;49.80
46366;DHT22;32073;49.166;8.076;2023-03-01T04:34:03;3.10;49.80
46366;DHT22;32073;49.166;8.076;2023-03-01T04:38:05;3.10;49.90
46366;DHT22;32073;49.166;8.076;2023-03-01T04:42:05;3.10;50.00
46366;DHT22;32073;49.166;8.076;2023-03-01T04:46:08;3.10;50.00
46366;DHT22;32073;49.166;8.076;2023-03-01T04:50:14;3.00;50.00
46366;DHT22;32073;49.166;8.076;2023-03-01T04:54:16;3.10;50.10
46366;DHT22;32073;49.166;8.076;2023-03-01T04:58:17;3.00;50.10
46366;DHT22;32073;49.166;8.076;2023-03-01T05:02:17;3.00;50.10
46366;DHT22;32073;49.166;8.076;2023-03-01T05:06:19;3.00;50.10
46366;DHT22;32073;49.166;8.076;2023-03-01T05:10:21;3.00;50.10
46366;DHT22;32073;49.166;8.076;2023-03-01T05:14:22;3.00;50.20
46366;DHT22;32073;49.166;8.076;2023-03-01T05:18:24;3.00;50.20
46366;DHT22;32073;49.166;8.076;2023-03-01T05:22:27;2.90;50.30
46366;DHT22;32073;49.166;8.076;2023-03-01T05:26:28;2.90;50.30
46366;DHT22;32073;49.166;8.076;2023-03-01T05:30:28;2.90;50.30
46366;DHT22;32073;49.166;8.076;2023-03-01T05:34:32;2.90;50.40
46366;DHT22;32073;49.166;8.076;2023-03-01T05:38:34;2.80;50.50
46366;DHT22;32073;49.166;8.076;2023-03-01T05:42:34;2.80;50.50
46366;DHT22;32073;49.166;8.076;2023-03-01T05:46:35;2.80;50.60
46366;DHT22;32073;49.166;8.076;2023-03-01T05:50:39;2.80;50.60
46366;DHT22;32073;49.166;8.076;2023-03-01T05:54:43;2.80;50.70
46366;DHT22;32073;49.166;8.076;2023-03-01T05:58:44;2.80;50.70
46366;DHT22;32073;49.166;8.076;2023-03-01T06:02:45;2.80;50.80
46366;DHT22;32073;49.166;8.076;2023-03-01T06:06:45;2.70;50.80
46366;DHT22;32073;49.166;8.076;2023-03-01T06:10:46;2.70;50.80
46366;DHT22;32073;49.166;8.076;2023-03-01T06:14:47;2.80;50.90
46366;DHT22;32073;49.166;8.076;2023-03-01T06:18:48;2.80;50.90
46366;DHT22;32073;49.166;8.076;2023-03-01T06:22:49;2.80;51.00
46366;DHT22;32073;49.166;8.076;2023-03-01T06:26:53;2.80;51.00
46366;DHT22;32073;49.166;8.076;2023-03-01T06:30:54;2.80;51.10
46366;DHT22;32073;49.166;8.076;2023-03-01T06:34:54;2.80;51.00
46366;DHT22;32073;49.166;8.076;2023-03-01T06:38:55;2.80;51.00
46366;DHT22;32073;49.166;8.076;2023-03-01T06:42:56;2.80;51.10
46366;DHT22;32073;49.166;8.076;2023-03-01T06:46:56;2.80;51.20
46366;DHT22;32073;49.166;8.076;2023-03-01T06:51:00;2.90;51.20
46366;DHT22;32073;49.166;8.076;2023-03-01T06:55:01;2.80;51.30
46366;DHT22;32073;49.166;8.076;2023-03-01T06:59:02;2.90;51.30
46366;DHT22;32073;49.166;8.076;2023-03-01T07:03:03;2.90;51.30
46366;DHT22;32073;49.166;8.076;2023-03-01T07:07:04;2.90;51.40
46366;DHT22;32073;49.166;8.076;2023-03-01T07:11:05;3.00;51.50
46366;DHT22;32073;49.166;8.076;2023-03-01T07:15:06;3.00;51.50
46366;DHT22;32073;49.166;8.076;2023-03-01T07:19:09;2.90;51.50
46366;DHT22;32073;49.166;8.076;2023-03-01T07:23:10;3.10;51.60
46366;DHT22;32073;49.166;8.076;2023-03-01T07:27:12;3.10;51.60
46366;DHT22;32073;49.166;8.076;2023-03-01T07:31:12;3.10;51.70
46366;DHT22;32073;49.166;8.076;2023-03-01T07:35:13;3.20;51.80
46366;DHT22;32073;49.166;8.076;2023-03-01T07:39:15;3.30;51.80
46366;DHT22;32073;49.166;8.076;2023-03-01T07:43:15;3.30;51.80
46366;DHT22;32073;49.166;8.076;2023-03-01T07:47:16;3.40;51.90
46366;DHT22;32073;49.166;8.076;2023-03-01T07:51:16;3.50;51.90
46366;DHT22;32073;49.166;8.076;2023-03-01T07:55:17;3.50;51.80
46366;DHT22;32073;49.166;8.076;2023-03-01T07:59:18;3.60;51.90
46366;DHT22;32073;49.166;8.076;2023-03-01T08:03:19;3.60;51.90
46366;DHT22;32073;49.166;8.076;2023-03-01T08:07:19;3.80;51.90
46366;DHT22;32073;49.166;8.076;2023-03-01T08:11:20;3.80;51.90
46366;DHT22;32073;49.166;8.076;2023-03-01T08:15:21;3.80;51.90
46366;DHT22;32073;49.166;8.076;2023-03-01T08:19:22;3.90;51.90
46366;DHT22;32073;49.166;8.076;2023-03-01T08:23:23;3.90;51.90
46366;DHT22;32073;49.166;8.076;2023-03-01T08:27:24;4.00;51.90
46366;DHT22;32073;49.166;8.076;2023-03-01T08:31:27;4.00;51.80
46366;DHT22;32073;49.166;8.076;2023-03-01T08:35:30;4.10;51.90
46366;DHT22;32073;49.166;8.076;2023-03-01T08:39:31;4.10;52.50
46366;DHT22;32073;49.166;8.076;2023-03-01T08:43:32;4.10;51.90
46366;DHT22;32073;49.166;8.076;2023-03-01T08:47:33;4.30;52.10
46366;DHT22;32073;49.166;8.076;2023-03-01T08:51:34;4.30;52.00
46366;DHT22;32073;49.166;8.076;2023-03-01T08:55:37;4.40;52.00
46366;DHT22;32073;49.166;8.076;2023-03-01T08:59:37;4.50;52.00
46366;DHT22;32073;49.166;8.076;2023-03-01T09:03:38;4.60;52.60
46366;DHT22;32073;49.166;8.076;2023-03-01T09:07:39;4.70;52.60
46366;DHT22;32073;49.166;8.076;2023-03-01T09:11:39;4.70;52.10
46366;DHT22;32073;49.166;8.076;2023-03-01T09:15:40;4.90;52.10
46366;DHT22;32073;49.166;8.076;2023-03-01T09:19:41;5.00;51.90
46366;DHT22;32073;49.166;8.076;2023-03-01T09:23:43;5.00;51.80
46366;DHT22;32073;49.166;8.076;2023-03-01T09:27:45;5.10;51.80
46366;DHT22;32073;49.166;8.076;2023-03-01T09:31:46;5.20;51.80
46366;DHT22;32073;49.166;8.076;2023-03-01T09:35:46;5.20;51.60
46366;DHT22;32073;49.166;8.076;2023-03-01T09:39:48;5.30;51.60
46366;DHT22;32073;49.166;8.076;2023-03-01T09:43:55;5.30;51.60
46366;DHT22;32073;49.166;8.076;2023-03-01T09:48:01;5.40;51.60
46366;DHT22;32073;49.166;8.076;2023-03-01T09:57:14;5.60;51.40
46366;DHT22;32073;49.166;8.076;2023-03-01T10:05:58;5.80;51.20
46366;DHT22;32073;49.166;8.076;2023-03-01T10:10:06;5.80;50.90
46366;DHT22;32073;49.166;8.076;2023-03-01T10:18:35;6.00;50.80
46366;DHT22;32073;49.166;8.076;2023-03-01T10:22:38;6.10;51.30
46366;DHT22;32073;49.166;8.076;2023-03-01T10:27:00;6.10;51.30
46366;DHT22;32073;49.166;8.076;2023-03-01T10:31:13;6.30;50.90
46366;DHT22;32073;49.166;8.076;2023-03-01T10:35:28;6.40;51.10
46366;DHT22;32073;49.166;8.076;2023-03-01T10:39:30;6.50;51.10
46366;DHT22;32073;49.166;8.076;2023-03-01T10:43:55;6.60;51.10
46366;DHT22;32073;49.166;8.076;2023-03-01T10:48:19;6.70;50.40
46366;DHT22;32073;49.166;8.076;2023-03-01T10:52:33;6.80;50.50
46366;DHT22;32073;49.166;8.076;2023-03-01T10:56:47;6.90;50.60
46366;DHT22;32073;49.166;8.076;2023-03-01T11:01:08;6.90;50.30
46366;DHT22;32073;49.166;8.076;2023-03-01T11:05:21;7.00;50.30
46366;DHT22;32073;49.166;8.076;2023-03-01T11:09:26;7.10;50.40
46366;DHT22;32073;49.166;8.076;2023-03-01T11:17:59;7.30;50.50
46366;DHT22;32073;49.166;8.076;2023-03-01T11:22:12;7.40;50.40
46366;DHT22;32073;49.166;8.076;2023-03-01T11:26:15;7.40;49.90
46366;DHT22;32073;49.166;8.076;2023-03-01T11:30:51;7.50;50.30
46366;DHT22;32073;49.166;8.076;2023-03-01T11:39:23;7.70;50.20
46366;DHT22;32073;49.166;8.076;2023-03-01T11:48:07;7.80;49.70
46366;DHT22;32073;49.166;8.076;2023-03-01T11:52:53;7.90;49.50
46366;DHT22;32073;49.166;8.076;2023-03-01T12:06:29;8.10;49.50
46366;DHT22;32073;49.166;8.076;2023-03-01T12:10:38;8.20;49.50
46366;DHT22;32073;49.166;8.076;2023-03-01T12:19:44;8.30;49.40
46366;DHT22;32073;49.166;8.076;2023-03-01T12:33:02;8.60;48.90
46366;DHT22;32073;49.166;8.076;2023-03-01T12:37:33;8.70;49.00
46366;DHT22;32073;49.166;8.076;2023-03-01T12:42:02;8.80;49.00
46366;DHT22;32073;49.166;8.076;2023-03-01T12:46:28;8.90;48.60
46366;DHT22;32073;49.166;8.076;2023-03-01T12:50:55;9.00;49.00
46366;DHT22;32073;49.166;8.076;2023-03-01T12:55:02;9.00;48.90
46366;DHT22;32073;49.166;8.076;2023-03-01T12:59:24;9.10;48.60
46366;DHT22;32073;49.166;8.076;2023-03-01T13:08:07;9.20;48.20
46366;DHT22;32073;49.166;8.076;2023-03-01T13:16:53;9.30;47.80
46366;DHT22;32073;49.166;8.076;2023-03-01T13:20:59;9.30;48.40
46366;DHT22;32073;49.166;8.076;2023-03-01T13:25:03;9.40;48.10
46366;DHT22;32073;49.166;8.076;2023-03-01T13:29:26;9.50;48.30
46366;DHT22;32073;49.166;8.076;2023-03-01T13:37:29;9.60;48.10
46366;DHT22;32073;49.166;8.076;2023-03-01T13:45:40;9.70;47.50
46366;DHT22;32073;49.166;8.076;2023-03-01T13:49:53;9.70;47.50
46366;DHT22;32073;49.166;8.076;2023-03-01T13:53:58;9.70;47.20
46366;DHT22;32073;49.166;8.076;2023-03-01T13:58:01;9.80;47.50
46366;DHT22;32073;49.166;8.076;2023-03-01T14:02:12;9.80;47.50
46366;DHT22;32073;49.166;8.076;2023-03-01T14:06:14;9.80;46.80
46366;DHT22;32073;49.166;8.076;2023-03-01T14:10:17;9.90;47.70
46366;DHT22;32073;49.166;8.076;2023-03-01T14:14:28;9.90;47.60
46366;DHT22;32073;49.166;8.076;2023-03-01T14:18:38;10.00;47.30
46366;DHT22;32073;49.166;8.076;2023-03-01T14:22:49;10.00;46.80
46366;DHT22;32073;49.166;8.076;2023-03-01T14:26:52;10.00;47.10
46366;DHT22;32073;49.166;8.076;2023-03-01T14:30:57;10.10;47.00
46366;DHT22;32073;49.166;8.076;2023-03-01T14:35:00;10.10;47.00
46366;DHT22;32073;49.166;8.076;2023-03-01T14:39:01;10.20;46.90
46366;DHT22;32073;49.166;8.076;2023-03-01T14:43:11;10.20;46.80
46366;DHT22;32073;49.166;8.076;2023-03-01T14:47:15;10.30;46.40
46366;DHT22;32073;49.166;8.076;2023-03-01T14:51:29;10.30;46.60
46366;DHT22;32073;49.166;8.076;2023-03-01T14:55:38;10.30;46.60
46366;DHT22;32073;49.166;8.076;2023-03-01T14:59:43;10.30;46.00
46366;DHT22;32073;49.166;8.076;2023-03-01T15:03:49;10.30;46.50
46366;DHT22;32073;49.166;8.076;2023-03-01T15:07:51;10.40;46.40
46366;DHT22;32073;49.166;8.076;2023-03-01T15:11:52;10.40;46.20
46366;DHT22;32073;49.166;8.076;2023-03-01T15:16:07;10.40;46.10
46366;DHT22;32073;49.166;8.076;2023-03-01T15:20:17;10.40;45.60
46366;DHT22;32073;49.166;8.076;2023-03-01T15:24:25;10.40;45.60
46366;DHT22;32073;49.166;8.076;2023-03-01T15:28:30;10.50;45.70
46366;DHT22;32073;49.166;8.076;2023-03-01T15:32:35;10.50;45.90
46366;DHT22;32073;49.166;8.076;2023-03-01T15:36:44;10.50;45.90
46366;DHT22;32073;49.166;8.076;2023-03-01T15:40:49;10.50;45.90
46366;DHT22;32073;49.166;8.076;2023-03-01T15:53:30;10.50;45.50
46366;DHT22;32073;49.166;8.076;2023-03-01T15:57:31;10.50;45.70
46366;DHT22;32073;49.166;8.076;2023-03-01T16:01:32;10.50;45.70
46366;DHT22;32073;49.166;8.076;2023-03-01T16:05:35;10.50;45.60
46366;DHT22;32073;49.166;8.076;2023-03-01T16:09:36;10.50;45.50
46366;DHT22;32073;49.166;8.076;2023-03-01T16:13:37;10.50;45.50
46366;DHT22;32073;49.166;8.076;2023-03-01T16:17:37;10.50;45.40
46366;DHT22;32073;49.166;8.076;2023-03-01T16:21:38;10.50;45.40
46366;DHT22;32073;49.166;8.076;2023-03-01T16:25:39;10.40;45.30
46366;DHT22;32073;49.166;8.076;2023-03-01T16:29:39;10.40;45.40
46366;DHT22;32073;49.166;8.076;2023-03-01T16:33:40;10.40;45.30
46366;DHT22;32073;49.166;8.076;2023-03-01T16:37:41;10.40;45.30
46366;DHT22;32073;49.166;8.076;2023-03-01T16:41:41;10.30;45.20
46366;DHT22;32073;49.166;8.076;2023-03-01T16:45:42;10.30;45.20
46366;DHT22;32073;49.166;8.076;2023-03-01T16:49:45;10.30;45.20
46366;DHT22;32073;49.166;8.076;2023-03-01T16:53:45;10.20;45.20
46366;DHT22;32073;49.166;8.076;2023-03-01T16:57:46;10.10;45.20
46366;DHT22;32073;49.166;8.076;2023-03-01T17:01:46;10.10;45.20
46366;DHT22;32073;49.166;8.076;2023-03-01T17:05:47;10.00;45.20
46366;DHT22;32073;49.166;8.076;2023-03-01T17:09:48;10.00;45.20
46366;DHT22;32073;49.166;8.076;2023-03-01T17:13:49;10.00;45.30
46366;DHT22;32073;49.166;8.076;2023-03-01T17:17:50;9.80;45.20
46366;DHT22;32073;49.166;8.076;2023-03-01T17:21:57;9.80;45.20
46366;DHT22;32073;49.166;8.076;2023-03-01T17:25:57;9.80;45.30
46366;DHT22;32073;49.166;8.076;2023-03-01T17:29:58;9.70;45.30
46366;DHT22;32073;49.166;8.076;2023-03-01T17:33:59;9.60;45.20
46366;DHT22;32073;49.166;8.076;2023-03-01T17:37:59;9.60;45.30
46366;DHT22;32073;49.166;8.076;2023-03-01T17:42:01;9.50;45.20
46366;DHT22;32073;49.166;8.076;2023-03-01T17:46:04;9.50;45.30
46366;DHT22;32073;49.166;8.076;2023-03-01T17:50:05;9.40;45.30
46366;DHT22;32073;49.166;8.076;2023-03-01T17:54:07;9.30;45.30
46366;DHT22;32073;49.166;8.076;2023-03-01T17:58:09;9.30;45.40
46366;DHT22;32073;49.166;8.076;2023-03-01T18:02:13;9.20;45.40
46366;DHT22;32073;49.166;8.076;2023-03-01T18:06:23;9.10;45.40
46366;DHT22;32073;49.166;8.076;2023-03-01T18:10:25;9.10;45.20
46366;DHT22;32073;49.166;8.076;2023-03-01T18:14:26;9.10;45.50
46366;DHT22;32073;49.166;8.076;2023-03-01T18:18:29;9.00;45.40
46366;DHT22;32073;49.166;8.076;2023-03-01T18:22:30;8.90;45.30
46366;DHT22;32073;49.166;8.076;2023-03-01T18:26:31;8.90;45.30
46366;DHT22;32073;49.166;8.076;2023-03-01T18:30:32;8.80;45.40
46366;DHT22;32073;49.166;8.076;2023-03-01T18:34:32;8.70;45.30
46366;DHT22;32073;49.166;8.076;2023-03-01T18:38:34;8.70;45.40
46366;DHT22;32073;49.166;8.076;2023-03-01T18:42:34;8.60;45.40
46366;DHT22;32073;49.166;8.076;2023-03-01T18:46:36;8.50;45.40
46366;DHT22;32073;49.166;8.076;2023-03-01T18:50:39;8.50;45.50
46366;DHT22;32073;49.166;8.076;2023-03-01T18:54:40;8.50;45.50
46366;DHT22;32073;49.166;8.076;2023-03-01T18:58:42;8.40;45.50
46366;DHT22;32073;49.166;8.076;2023-03-01T19:02:43;8.40;45.60
46366;DHT22;32073;49.166;8.076;2023-03-01T19:06:43;8.30;45.50
46366;DHT22;32073;49.166;8.076;2023-03-01T19:10:44;8.20;45.50
46366;DHT22;32073;49.166;8.076;2023-03-01T19:14:44;8.20;45.60
46366;DHT22;32073;49.166;8.076;2023-03-01T19:18:46;8.20;45.70
46366;DHT22;32073;49.166;8.076;2023-03-01T19:22:49;8.10;45.70
46366;DHT22;32073;49.166;8.076;2023-03-01T19:26:50;8.10;45.70
46366;DHT22;32073;49.166;8.076;2023-03-01T19:30:50;8.10;45.80
46366;DHT22;32073;49.166;8.076;2023-03-01T19:34:51;8.00;45.80
46366;DHT22;32073;49.166;8.076;2023-03-01T19:38:52;8.00;45.80
46366;DHT22;32073;49.166;8.076;2023-03-01T19:42:52;8.00;45.90
46366;DHT22;32073;49.166;8.076;2023-03-01T19:46:55;7.90;45.90
46366;DHT22;32073;49.166;8.076;2023-03-01T19:50:59;7.90;45.90
46366;DHT22;32073;49.166;8.076;2023-03-01T19:55:00;7.90;46.00
46366;DHT22;32073;49.166;8.076;2023-03-01T19:59:01;7.90;46.10
46366;DHT22;32073;49.166;8.076;2023-03-01T20:03:03;7.80;46.00
46366;DHT22;32073;49.166;8.076;2023-03-01T20:07:04;7.80;46.10
46366;DHT22;32073;49.166;8.076;2023-03-01T20:11:09;7.80;46.10
46366;DHT22;32073;49.166;8.076;2023-03-01T20:15:11;7.80;46.10
46366;DHT22;32073;49.166;8.076;2023-03-01T20:19:11;7.70;46.10
46366;DHT22;32073;49.166;8.076;2023-03-01T20:23:12;7.70;46.20
46366;DHT22;32073;49.166;8.076;2023-03-01T20:27:13;7.70;46.20
46366;DHT22;32073;49.166;8.076;2023-03-01T20:31:15;7.70;46.20
46366;DHT22;32073;49.166;8.076;2023-03-01T20:35:17;7.60;46.20
46366;DHT22;32073;49.166;8.076;2023-03-01T20:39:18;7.50;46.20
46366;DHT22;32073;49.166;8.076;2023-03-01T20:43:18;7.50;46.20
46366;DHT22;32073;49.166;8.076;2023-03-01T20:47:19;7.50;46.30
46366;DHT22;32073;49.166;8.076;2023-03-01T20:51:22;7.50;46.30
46366;DHT22;32073;49.166;8.076;2023-03-01T20:55:23;7.40;46.30
46366;DHT22;32073;49.166;8.076;2023-03-01T20:59:24;7.40;46.40
46366;DHT22;32073;49.166;8.076;2023-03-01T21:03:25;7.40;46.50
46366;DHT22;32073;49.166;8.076;2023-03-01T21:07:25;7.40;46.40
46366;DHT22;32073;49.166;8.076;2023-03-01T21:11:26;7.40;46.40
46366;DHT22;32073;49.166;8.076;2023-03-01T21:15:27;7.40;46.40
46366;DHT22;32073;49.166;8.076;2023-03-01T21:19:27;7.30;46.40
46366;DHT22;32073;49.166;8.076;2023-03-01T21:23:29;7.30;46.50
46366;DHT22;32073;49.166;8.076;2023-03-01T21:27:35;7.20;46.50
46366;DHT22;32073;49.166;8.076;2023-03-01T21:31:37;7.20;46.50
46366;DHT22;32073;49.166;8.076;2023-03-01T21:35:37;7.20;46.50
46366;DHT22;32073;49.166;8.076;2023-03-01T21:39:38;7.10;46.50
46366;DHT22;32073;49.166;8.076;2023-03-01T21:43:40;7.10;46.60
46366;DHT22;32073;49.166;8.076;2023-03-01T21:47:41;7.10;46.60
46366;DHT22;32073;49.166;8.076;2023-03-01T21:51:42;7.00;46.60
46366;DHT22;32073;49.166;8.076;2023-03-01T21:55:47;7.10;46.70
46366;DHT22;32073;49.166;8.076;2023-03-01T21:59:48;7.00;46.60
46366;DHT22;32073;49.166;8.076;2023-03-01T22:03:49;7.00;46.70
46366;DHT22;32073;49.166;8.076;2023-03-01T22:07:50;6.90;46.70
46366;DHT22;32073;49.166;8.076;2023-03-01T22:11:55;6.90;46.70
46366;DHT22;32073;49.166;8.076;2023-03-01T22:16:01;6.90;46.70
46366;DHT22;32073;49.166;8.076;2023-03-01T22:20:02;6.90;46.80
46366;DHT22;32073;49.166;8.076;2023-03-01T22:24:03;6.80;46.80
46366;DHT22;32073;49.166;8.076;2023-03-01T22:28:04;6.80;46.80
46366;DHT22;32073;49.166;8.076;2023-03-01T22:32:05;6.80;46.90
46366;DHT22;32073;49.166;8.076;2023-03-01T22:36:06;6.80;46.90
46366;DHT22;32073;49.166;8.076;2023-03-01T22:40:08;6.80;46.90
46366;DHT22;32073;49.166;8.076;2023-03-01T22:44:14;6.70;46.90
46366;DHT22;32073;49.166;8.076;2023-03-01T22:48:16;6.70;47.00
46366;DHT22;32073;49.166;8.076;2023-03-01T22:52:17;6.70;47.60
46366;DHT22;32073;49.166;8.076;2023-03-01T22:56:23;6.70;47.00
46366;DHT22;32073;49.166;8.076;2023-03-01T23:00:25;6.70;47.10
46366;DHT22;32073;49.166;8.076;2023-03-01T23:04:26;6.70;47.10
46366;DHT22;32073;49.166;8.076;2023-03-01T23:08:26;6.70;47.20
46366;DHT22;32073;49.166;8.076;2023-03-01T23:12:28;6.60;47.10
46366;DHT22;32073;49.166;8.076;2023-03-01T23:16:28;6.60;47.20
46366;DHT22;32073;49.166;8.076;2023-03-01T23:20:29;6.60;47.30
46366;DHT22;32073;49.166;8.076;2023-03-01T23:24:29;6.60;47.30
46366;DHT22;32073;49.166;8.076;2023-03-01T23:28:30;6.60;47.30
46366;DHT22;32073;49.166;8.076;2023-03-01T23:32:31;6.50;47.30
46366;DHT22;32073;49.166;8.076;2023-03-01T23:36:33;6.60;47.40
46366;DHT22;32073;49.166;8.076;2023-03-01T23:40:37;6.50;47.40
46366;DHT22;32073;49.166;8.076;2023-03-01T23:44:38;6.50;47.50
46366;DHT22;32073;49.166;8.076;2023-03-01T23:48:41;6.50;47.50
46366;DHT22;32073;49.166;8.076;2023-03-01T23:52:42;6.40;47.40
46366;DHT22;32073;49.166;8.076;2023-03-01T23:56:43;6.50;47.60
